createdAt,value
2022-11-25T00:03:55.029Z,58.60
2022-11-25T00:08:57.985Z,58.84
2022-11-25T00:13:59.442Z,58.23
2022-11-25T00:19:00.899Z,58.42
2022-11-25T00:24:06.437Z,59.61
2022-11-25T00:29:08.269Z,59.36
2022-11-25T00:34:13.517Z,58.45
2022-11-25T00:39:16.371Z,58.65
2022-11-25T00:44:37.704Z,58.67
2022-11-25T00:49:40.978Z,57.56
2022-11-25T00:54:42.684Z,57.20
2022-11-25T00:59:44.144Z,57.92
2022-11-25T01:04:46.054Z,56.80
2022-11-25T01:09:47.620Z,55.65
2022-11-25T01:14:49.068Z,56.20
2022-11-25T01:19:50.540Z,56.48
2022-11-25T01:24:52.003Z,55.29
2022-11-25T01:29:53.458Z,56.18
2022-11-25T01:34:54.936Z,57.35
2022-11-25T01:39:56.403Z,56.79
2022-11-25T01:45:24.614Z,57.99
2022-11-25T01:50:29.397Z,57.46
2022-11-25T01:55:30.984Z,57.62
2022-11-25T02:00:32.530Z,58.22
2022-11-25T02:05:52.139Z,58.05
2022-11-25T02:10:54.293Z,57.36
2022-11-25T02:15:55.742Z,57.21
2022-11-25T02:20:57.194Z,57.81
2022-11-25T02:25:58.686Z,57.30
2022-11-25T02:31:00.147Z,59.30
2022-11-25T02:36:03.106Z,58.81
2022-11-25T02:41:25.125Z,57.85
2022-11-25T02:46:26.703Z,58.28
2022-11-25T02:51:29.514Z,57.88
2022-11-25T02:56:31.933Z,58.49
2022-11-25T03:01:33.344Z,57.97
2022-11-25T03:06:34.906Z,57.20
2022-11-25T03:11:54.745Z,57.54
2022-11-25T03:16:56.301Z,57.35
2022-11-25T03:21:57.829Z,58.39
2022-11-25T03:26:59.394Z,57.92
2022-11-25T03:32:04.195Z,57.75
2022-11-25T03:37:08.417Z,58.35
2022-11-25T03:42:09.919Z,59.36
2022-11-25T03:47:11.387Z,59.38
2022-11-25T03:52:12.845Z,58.78
2022-11-25T03:57:14.335Z,58.64
2022-11-25T04:02:15.840Z,59.11
2022-11-25T04:07:17.490Z,58.80
2022-11-25T04:12:37.328Z,58.38
2022-11-25T04:17:38.790Z,58.69
2022-11-25T04:22:40.391Z,59.28
2022-11-25T04:27:41.853Z,59.06
2022-11-25T04:32:43.309Z,59.82
2022-11-25T04:37:44.755Z,58.98
2022-11-25T04:42:46.212Z,58.91
2022-11-25T04:47:47.672Z,59.41
2022-11-25T04:52:49.118Z,59.77
2022-11-25T04:57:50.568Z,60.41
2022-11-25T05:02:52.074Z,60.95
2022-11-25T05:07:53.603Z,60.74
2022-11-25T05:12:55.096Z,61.77
2022-11-25T05:17:56.538Z,61.43
2022-11-25T05:22:58.016Z,61.57
2022-11-25T05:28:00.293Z,61.33
2022-11-25T05:33:01.748Z,61.70
2022-11-25T05:38:04.240Z,61.04
2022-11-25T05:43:05.690Z,61.88
2022-11-25T05:48:08.300Z,62.17
2022-11-25T05:53:09.797Z,62.35
2022-11-25T05:58:11.246Z,61.89
2022-11-25T06:03:12.797Z,62.66
2022-11-25T06:08:14.364Z,62.75
2022-11-25T06:13:15.829Z,63.63
2022-11-25T06:18:17.383Z,63.85
2022-11-25T06:23:18.867Z,64.41
2022-11-25T06:28:20.323Z,63.93
2022-11-25T06:33:21.788Z,66.10
2022-11-25T06:38:23.255Z,63.77
2022-11-25T06:43:24.711Z,63.54
2022-11-25T06:48:26.178Z,64.02
2022-11-25T06:53:27.715Z,65.24
2022-11-25T06:58:35.920Z,64.67
2022-11-25T07:03:37.766Z,63.79
2022-11-25T07:08:39.314Z,63.47
2022-11-25T07:13:40.774Z,63.61
2022-11-25T07:18:42.254Z,63.97
2022-11-25T07:23:44.160Z,63.13
2022-11-25T07:28:45.704Z,62.98
2022-11-25T07:33:47.235Z,63.00
2022-11-25T07:38:48.810Z,62.77
2022-11-25T07:43:52.489Z,62.97
2022-11-25T07:48:54.983Z,62.71
2022-11-25T07:53:56.846Z,62.30
2022-11-25T07:58:58.304Z,62.76
2022-11-25T08:03:59.772Z,62.54
2022-11-25T08:09:01.220Z,63.14
2022-11-25T08:14:02.841Z,63.70
2022-11-25T08:19:07.093Z,63.57
2022-11-25T08:24:10.123Z,62.45
2022-11-25T08:29:13.773Z,62.17
2022-11-25T08:34:33.346Z,62.50
2022-11-25T08:44:56.301Z,61.97
2022-11-25T08:49:57.907Z,62.00
2022-11-25T08:54:59.359Z,61.66
2022-11-25T09:00:00.824Z,61.62
2022-11-25T09:05:02.298Z,61.42
2022-11-25T09:10:04.085Z,61.61
2022-11-25T09:15:05.976Z,61.01
2022-11-25T09:20:07.742Z,61.36
2022-11-25T09:25:09.309Z,60.77
2022-11-25T09:30:11.155Z,60.79
2022-11-25T09:35:12.611Z,60.94
2022-11-25T09:40:47.859Z,60.20
2022-11-25T09:46:23.831Z,59.69
2022-11-25T09:51:32.252Z,60.03
2022-11-25T09:56:42.922Z,59.64
2022-11-25T10:01:50.122Z,59.79
2022-11-25T10:06:57.051Z,60.34
2022-11-25T10:12:03.309Z,60.40
2022-11-25T10:17:10.409Z,60.29
2022-11-25T10:22:21.028Z,60.17
2022-11-25T10:27:46.604Z,60.46
2022-11-25T10:32:59.321Z,60.07
2022-11-25T10:38:03.816Z,61.93
2022-11-25T10:43:14.272Z,60.87
2022-11-25T10:48:44.035Z,60.26
2022-11-25T10:54:11.384Z,60.17
2022-11-25T10:59:22.200Z,59.34
2022-11-25T11:04:23.652Z,59.97
2022-11-25T11:09:38.855Z,60.05
2022-11-25T11:14:40.355Z,58.90
2022-11-25T11:19:41.813Z,58.61
2022-11-25T11:24:43.278Z,58.93
2022-11-25T11:29:44.744Z,58.80
2022-11-25T11:35:06.774Z,59.16
2022-11-25T11:40:30.835Z,57.97
2022-11-25T11:45:53.964Z,58.33
2022-11-25T11:51:13.751Z,57.92
2022-11-25T11:56:36.692Z,58.03
2022-11-25T12:02:00.464Z,57.98
2022-11-25T12:07:15.919Z,58.79
2022-11-25T12:12:19.150Z,58.11
2022-11-25T12:17:27.496Z,58.11
2022-11-25T12:22:34.753Z,58.91
2022-11-25T12:27:47.783Z,59.51
2022-11-25T12:33:06.561Z,59.61
2022-11-25T12:38:29.855Z,59.64
2022-11-25T12:43:42.940Z,59.45
2022-11-25T12:48:44.460Z,59.08
2022-11-25T12:54:19.734Z,59.44
2022-11-25T12:59:33.414Z,58.80
2022-11-25T13:10:54.992Z,60.61
2022-11-25T13:15:57.292Z,62.76
2022-11-25T13:21:08.899Z,61.14
2022-11-25T13:26:28.477Z,61.33
2022-11-25T13:32:01.666Z,61.42
2022-11-25T13:37:33.473Z,61.17
2022-11-25T13:42:43.340Z,61.55
2022-11-25T13:47:48.391Z,61.62
2022-11-25T13:52:59.445Z,61.46
2022-11-25T13:58:02.233Z,60.42
2022-11-25T14:03:18.954Z,61.68
2022-11-25T14:08:26.343Z,61.23
2022-11-25T14:14:01.049Z,61.47
2022-11-25T14:19:51.678Z,61.12
2022-11-25T14:24:55.467Z,62.79
2022-11-25T14:30:04.983Z,60.96
2022-11-25T14:35:45.768Z,60.32
2022-11-25T14:40:54.633Z,60.77
2022-11-25T14:46:12.934Z,60.52
2022-11-25T14:51:14.520Z,59.57
2022-11-25T14:56:23.428Z,59.88
2022-11-25T15:01:32.529Z,61.45
2022-11-25T15:06:38.809Z,61.06
2022-11-25T15:11:40.280Z,61.88
2022-11-25T15:16:43.331Z,61.29
2022-11-25T15:22:14.900Z,66.01
2022-11-25T15:27:25.888Z,65.71
2022-11-25T15:32:31.218Z,66.49
2022-11-25T15:37:32.789Z,66.88
2022-11-25T15:42:34.275Z,65.35
2022-11-25T15:47:35.736Z,64.61
2022-11-25T15:52:38.027Z,62.93
2022-11-25T15:57:40.130Z,62.65
2022-11-25T16:02:41.521Z,62.28
2022-11-25T16:07:52.344Z,61.79
2022-11-25T16:13:20.889Z,60.88
2022-11-25T16:18:39.771Z,62.39
2022-11-25T16:23:44.618Z,62.05
2022-11-25T16:28:56.433Z,61.58
2022-11-25T16:34:11.748Z,61.37
2022-11-25T16:39:13.234Z,61.82
2022-11-25T16:44:19.076Z,62.77
2022-11-25T16:49:21.126Z,61.97
2022-11-25T16:54:22.846Z,61.54
2022-11-25T16:59:29.948Z,61.42
2022-11-25T17:04:31.404Z,61.22
2022-11-25T17:09:32.850Z,61.28
2022-11-25T17:14:34.708Z,61.24
2022-11-25T17:19:36.540Z,61.96
2022-11-25T17:24:38.398Z,62.30
2022-11-25T17:29:41.558Z,60.74
2022-11-25T17:34:43.364Z,63.28
2022-11-25T17:39:44.833Z,62.53
2022-11-25T17:44:51.274Z,61.61
2022-11-25T17:49:54.531Z,60.16
2022-11-25T17:54:56.117Z,58.95
2022-11-25T17:59:57.632Z,58.18
2022-11-25T18:04:59.087Z,59.22
2022-11-25T18:10:00.548Z,58.93
2022-11-25T18:15:07.887Z,58.05
2022-11-25T18:20:16.820Z,57.49
2022-11-25T18:25:26.079Z,55.38
2022-11-25T18:30:28.840Z,54.89
2022-11-25T18:35:36.121Z,53.34
2022-11-25T18:40:40.263Z,53.05
2022-11-25T18:45:41.798Z,53.59
2022-11-25T18:50:43.571Z,53.71
2022-11-25T18:55:45.028Z,52.84
2022-11-25T19:00:50.157Z,52.97
2022-11-25T19:05:54.081Z,52.76
2022-11-25T19:10:55.661Z,52.71
2022-11-25T19:16:00.168Z,52.19
2022-11-25T19:21:02.115Z,53.75
2022-11-25T19:26:07.604Z,52.65
2022-11-25T19:31:09.135Z,53.65
2022-11-25T19:36:16.982Z,53.29
2022-11-25T19:41:18.528Z,53.19
2022-11-25T19:46:40.949Z,52.97
2022-11-25T19:51:51.840Z,52.60
2022-11-25T19:56:53.639Z,52.61
2022-11-25T20:01:55.482Z,52.88
2022-11-25T20:06:57.049Z,53.24
2022-11-25T20:12:08.062Z,53.62
2022-11-25T20:17:12.908Z,53.39
2022-11-25T20:22:16.844Z,53.08
2022-11-25T20:27:18.299Z,52.30
2022-11-25T20:32:22.556Z,52.31
2022-11-25T20:37:24.990Z,52.63
2022-11-25T20:42:26.465Z,53.47
2022-11-25T20:47:28.247Z,51.80
2022-11-25T20:52:33.155Z,51.74
2022-11-25T20:57:36.398Z,52.21
2022-11-25T21:02:37.927Z,52.54
2022-11-25T21:07:39.599Z,52.88
2022-11-25T21:12:41.142Z,52.01
2022-11-25T21:17:42.615Z,52.52
2022-11-25T21:22:46.162Z,52.39
2022-11-25T21:27:47.617Z,52.40
2022-11-25T21:32:50.539Z,52.02
2022-11-25T21:37:51.994Z,52.41
2022-11-25T21:42:53.446Z,52.00
2022-11-25T21:47:54.921Z,53.21
2022-11-25T21:52:57.124Z,53.48
2022-11-25T21:57:58.583Z,52.57
2022-11-25T22:03:00.089Z,53.07
2022-11-25T22:08:01.695Z,53.49
2022-11-25T22:13:04.014Z,53.33
2022-11-25T22:18:05.484Z,53.43
2022-11-25T22:23:15.633Z,54.19
2022-11-25T22:28:21.569Z,54.56
2022-11-25T22:33:28.981Z,54.30
2022-11-25T22:38:30.593Z,55.09
2022-11-25T22:43:34.564Z,53.98
2022-11-25T22:48:36.648Z,55.36
2022-11-25T22:53:38.099Z,54.94
2022-11-25T22:58:39.742Z,56.15
2022-11-25T23:03:41.231Z,55.04
2022-11-25T23:08:42.693Z,54.33
2022-11-25T23:13:44.188Z,53.45
2022-11-25T23:18:46.018Z,53.50
2022-11-25T23:23:47.530Z,53.31
2022-11-25T23:28:49.128Z,52.71
2022-11-25T23:33:50.594Z,53.81
2022-11-25T23:38:56.401Z,54.75
2022-11-25T23:44:16.983Z,56.39
2022-11-25T23:49:23.968Z,56.42
2022-11-25T23:54:40.568Z,54.77
2022-11-25T23:59:42.518Z,56.45
